sensor_id;sensor_type;location;lat;lon;timestamp;P1;durP1;ratioP1;P2;durP2;ratioP2
76761;SDS011;65705;51.032;13.790;2022-12-07T00:00:27;13.68;;;6.18;;
76761;SDS011;65705;51.032;13.790;2022-12-07T00:02:53;11.68;;;6.50;;
76761;SDS011;65705;51.032;13.790;2022-12-07T00:05:19;12.48;;;6.35;;
76761;SDS011;65705;51.032;13.790;2022-12-07T00:07:44;11.52;;;6.03;;
76761;SDS011;65705;51.032;13.790;2022-12-07T00:10:10;11.38;;;6.70;;
76761;SDS011;65705;51.032;13.790;2022-12-07T00:12:36;14.00;;;6.30;;
76761;SDS011;65705;51.032;13.790;2022-12-07T00:15:01;13.25;;;6.78;;
76761;SDS011;65705;51.032;13.790;2022-12-07T00:17:28;11.82;;;6.25;;
76761;SDS011;65705;51.032;13.790;2022-12-07T00:19:54;10.68;;;5.60;;
76761;SDS011;65705;51.032;13.790;2022-12-07T00:22:20;13.85;;;7.03;;
76761;SDS011;65705;51.032;13.790;2022-12-07T00:24:48;12.43;;;5.55;;
76761;SDS011;65705;51.032;13.790;2022-12-07T00:27:14;13.40;;;6.35;;
76761;SDS011;65705;51.032;13.790;2022-12-07T00:29:40;14.23;;;6.68;;
76761;SDS011;65705;51.032;13.790;2022-12-07T00:32:05;13.23;;;6.25;;
76761;SDS011;65705;51.032;13.790;2022-12-07T00:34:31;15.13;;;7.32;;
76761;SDS011;65705;51.032;13.790;2022-12-07T00:36:57;12.32;;;6.18;;
76761;SDS011;65705;51.032;13.790;2022-12-07T00:39:22;13.13;;;6.35;;
76761;SDS011;65705;51.032;13.790;2022-12-07T00:41:48;12.57;;;7.03;;
76761;SDS011;65705;51.032;13.790;2022-12-07T00:44:14;13.68;;;6.50;;
76761;SDS011;65705;51.032;13.790;2022-12-07T00:46:39;13.07;;;6.65;;
76761;SDS011;65705;51.032;13.790;2022-12-07T00:49:05;13.20;;;7.15;;
76761;SDS011;65705;51.032;13.790;2022-12-07T00:51:31;12.05;;;6.13;;
76761;SDS011;65705;51.032;13.790;2022-12-07T00:53:57;12.93;;;6.35;;
76761;SDS011;65705;51.032;13.790;2022-12-07T00:56:23;14.10;;;6.60;;
76761;SDS011;65705;51.032;13.790;2022-12-07T00:58:54;13.10;;;6.50;;
76761;SDS011;65705;51.032;13.790;2022-12-07T01:01:22;13.10;;;6.10;;
76761;SDS011;65705;51.032;13.790;2022-12-07T01:03:49;13.50;;;6.43;;
76761;SDS011;65705;51.032;13.790;2022-12-07T01:06:15;15.63;;;7.35;;
76761;SDS011;65705;51.032;13.790;2022-12-07T01:08:42;14.73;;;6.68;;
76761;SDS011;65705;51.032;13.790;2022-12-07T01:11:09;13.68;;;6.93;;
76761;SDS011;65705;51.032;13.790;2022-12-07T01:13:38;15.23;;;6.68;;
76761;SDS011;65705;51.032;13.790;2022-12-07T01:16:05;14.73;;;7.05;;
76761;SDS011;65705;51.032;13.790;2022-12-07T01:18:33;13.00;;;6.28;;
76761;SDS011;65705;51.032;13.790;2022-12-07T01:21:01;14.57;;;7.35;;
76761;SDS011;65705;51.032;13.790;2022-12-07T01:23:38;13.68;;;7.05;;
76761;SDS011;65705;51.032;13.790;2022-12-07T01:26:05;16.15;;;7.75;;
76761;SDS011;65705;51.032;13.790;2022-12-07T01:28:32;16.15;;;7.40;;
76761;SDS011;65705;51.032;13.790;2022-12-07T01:30:59;15.07;;;7.00;;
76761;SDS011;65705;51.032;13.790;2022-12-07T01:33:28;15.55;;;7.75;;
76761;SDS011;65705;51.032;13.790;2022-12-07T01:36:02;15.60;;;7.93;;
76761;SDS011;65705;51.032;13.790;2022-12-07T01:38:29;14.68;;;7.28;;
76761;SDS011;65705;51.032;13.790;2022-12-07T01:40:56;15.93;;;7.07;;
76761;SDS011;65705;51.032;13.790;2022-12-07T01:43:22;16.55;;;7.60;;
76761;SDS011;65705;51.032;13.790;2022-12-07T01:45:51;12.60;;;6.68;;
76761;SDS011;65705;51.032;13.790;2022-12-07T01:48:17;14.75;;;7.07;;
76761;SDS011;65705;51.032;13.790;2022-12-07T01:50:47;15.77;;;6.90;;
76761;SDS011;65705;51.032;13.790;2022-12-07T01:53:16;14.45;;;7.50;;
76761;SDS011;65705;51.032;13.790;2022-12-07T01:55:44;13.48;;;7.05;;
76761;SDS011;65705;51.032;13.790;2022-12-07T01:58:12;13.07;;;7.07;;
76761;SDS011;65705;51.032;13.790;2022-12-07T02:00:41;12.27;;;5.88;;
76761;SDS011;65705;51.032;13.790;2022-12-07T02:03:16;13.30;;;7.15;;
76761;SDS011;65705;51.032;13.790;2022-12-07T02:05:47;12.25;;;6.15;;
76761;SDS011;65705;51.032;13.790;2022-12-07T02:08:14;9.98;;;5.47;;
76761;SDS011;65705;51.032;13.790;2022-12-07T02:10:40;11.68;;;5.85;;
76761;SDS011;65705;51.032;13.790;2022-12-07T02:13:11;12.38;;;6.32;;
76761;SDS011;65705;51.032;13.790;2022-12-07T02:31:12;10.20;;;5.30;;
76761;SDS011;65705;51.032;13.790;2022-12-07T02:33:45;10.43;;;5.43;;
76761;SDS011;65705;51.032;13.790;2022-12-07T02:41:35;10.32;;;4.97;;
76761;SDS011;65705;51.032;13.790;2022-12-07T02:44:04;9.52;;;4.45;;
76761;SDS011;65705;51.032;13.790;2022-12-07T02:46:36;8.95;;;4.50;;
76761;SDS011;65705;51.032;13.790;2022-12-07T02:49:04;10.55;;;5.57;;
76761;SDS011;65705;51.032;13.790;2022-12-07T02:51:32;9.68;;;4.78;;
76761;SDS011;65705;51.032;13.790;2022-12-07T02:53:59;9.65;;;4.90;;
76761;SDS011;65705;51.032;13.790;2022-12-07T03:07:43;12.25;;;5.47;;
76761;SDS011;65705;51.032;13.790;2022-12-07T03:19:16;14.10;;;5.75;;
76761;SDS011;65705;51.032;13.790;2022-12-07T03:21:51;11.00;;;5.68;;
76761;SDS011;65705;51.032;13.790;2022-12-07T03:24:19;12.50;;;5.65;;
76761;SDS011;65705;51.032;13.790;2022-12-07T03:26:48;12.95;;;6.35;;
76761;SDS011;65705;51.032;13.790;2022-12-07T03:29:22;13.23;;;6.28;;
76761;SDS011;65705;51.032;13.790;2022-12-07T03:31:55;10.73;;;5.30;;
76761;SDS011;65705;51.032;13.790;2022-12-07T03:34:38;13.50;;;7.10;;
76761;SDS011;65705;51.032;13.790;2022-12-07T03:37:14;12.18;;;7.05;;
76761;SDS011;65705;51.032;13.790;2022-12-07T03:39:50;15.30;;;6.80;;
76761;SDS011;65705;51.032;13.790;2022-12-07T03:42:27;12.75;;;6.15;;
76761;SDS011;65705;51.032;13.790;2022-12-07T03:44:54;13.57;;;6.78;;
76761;SDS011;65705;51.032;13.790;2022-12-07T03:47:23;14.40;;;7.25;;
76761;SDS011;65705;51.032;13.790;2022-12-07T03:50:11;12.75;;;7.68;;
76761;SDS011;65705;51.032;13.790;2022-12-07T03:52:50;13.13;;;7.72;;
76761;SDS011;65705;51.032;13.790;2022-12-07T03:55:25;15.20;;;7.20;;
76761;SDS011;65705;51.032;13.790;2022-12-07T03:57:56;13.77;;;6.72;;
76761;SDS011;65705;51.032;13.790;2022-12-07T04:00:25;14.23;;;7.10;;
76761;SDS011;65705;51.032;13.790;2022-12-07T04:02:52;15.32;;;8.13;;
76761;SDS011;65705;51.032;13.790;2022-12-07T04:05:18;12.90;;;6.57;;
76761;SDS011;65705;51.032;13.790;2022-12-07T04:07:44;13.40;;;7.65;;
76761;SDS011;65705;51.032;13.790;2022-12-07T04:10:10;15.05;;;8.00;;
76761;SDS011;65705;51.032;13.790;2022-12-07T04:12:36;13.43;;;6.80;;
76761;SDS011;65705;51.032;13.790;2022-12-07T04:15:03;14.65;;;7.35;;
76761;SDS011;65705;51.032;13.790;2022-12-07T04:17:29;13.43;;;7.20;;
76761;SDS011;65705;51.032;13.790;2022-12-07T04:19:55;15.15;;;7.60;;
76761;SDS011;65705;51.032;13.790;2022-12-07T04:22:21;15.85;;;7.93;;
76761;SDS011;65705;51.032;13.790;2022-12-07T04:24:46;15.88;;;7.25;;
76761;SDS011;65705;51.032;13.790;2022-12-07T04:27:12;13.95;;;6.70;;
76761;SDS011;65705;51.032;13.790;2022-12-07T04:29:38;16.33;;;8.00;;
76761;SDS011;65705;51.032;13.790;2022-12-07T04:32:04;12.77;;;7.10;;
76761;SDS011;65705;51.032;13.790;2022-12-07T04:34:29;13.77;;;7.28;;
76761;SDS011;65705;51.032;13.790;2022-12-07T04:36:55;14.90;;;7.25;;
76761;SDS011;65705;51.032;13.790;2022-12-07T04:39:22;12.93;;;6.97;;
76761;SDS011;65705;51.032;13.790;2022-12-07T04:41:58;15.25;;;6.65;;
76761;SDS011;65705;51.032;13.790;2022-12-07T04:44:25;17.20;;;7.35;;
76761;SDS011;65705;51.032;13.790;2022-12-07T04:46:53;14.50;;;6.97;;
76761;SDS011;65705;51.032;13.790;2022-12-07T04:49:19;14.00;;;6.82;;
76761;SDS011;65705;51.032;13.790;2022-12-07T04:51:45;15.15;;;6.70;;
76761;SDS011;65705;51.032;13.790;2022-12-07T04:54:12;13.98;;;6.55;;
76761;SDS011;65705;51.032;13.790;2022-12-07T04:56:40;15.70;;;7.35;;
76761;SDS011;65705;51.032;13.790;2022-12-07T04:59:06;12.57;;;6.30;;
76761;SDS011;65705;51.032;13.790;2022-12-07T05:01:32;14.93;;;7.32;;
76761;SDS011;65705;51.032;13.790;2022-12-07T05:03:58;15.25;;;7.60;;
76761;SDS011;65705;51.032;13.790;2022-12-07T05:06:24;14.48;;;6.15;;
76761;SDS011;65705;51.032;13.790;2022-12-07T05:08:50;13.07;;;6.53;;
76761;SDS011;65705;51.032;13.790;2022-12-07T05:11:16;15.20;;;6.80;;
76761;SDS011;65705;51.032;13.790;2022-12-07T05:14:01;15.43;;;6.82;;
76761;SDS011;65705;51.032;13.790;2022-12-07T05:16:28;14.52;;;6.70;;
76761;SDS011;65705;51.032;13.790;2022-12-07T05:18:54;12.80;;;6.18;;
76761;SDS011;65705;51.032;13.790;2022-12-07T05:21:19;14.65;;;7.07;;
76761;SDS011;65705;51.032;13.790;2022-12-07T05:23:45;14.80;;;6.28;;
76761;SDS011;65705;51.032;13.790;2022-12-07T05:26:11;11.50;;;5.97;;
76761;SDS011;65705;51.032;13.790;2022-12-07T05:28:37;11.95;;;6.38;;
76761;SDS011;65705;51.032;13.790;2022-12-07T05:31:02;13.52;;;6.53;;
76761;SDS011;65705;51.032;13.790;2022-12-07T05:33:28;15.45;;;6.13;;
76761;SDS011;65705;51.032;13.790;2022-12-07T05:35:54;11.07;;;5.75;;
76761;SDS011;65705;51.032;13.790;2022-12-07T05:38:20;12.60;;;5.85;;
76761;SDS011;65705;51.032;13.790;2022-12-07T05:40:45;12.23;;;6.00;;
76761;SDS011;65705;51.032;13.790;2022-12-07T05:43:11;11.75;;;6.10;;
76761;SDS011;65705;51.032;13.790;2022-12-07T05:45:36;12.60;;;6.30;;
76761;SDS011;65705;51.032;13.790;2022-12-07T05:48:02;12.82;;;6.22;;
76761;SDS011;65705;51.032;13.790;2022-12-07T05:50:28;11.65;;;5.90;;
76761;SDS011;65705;51.032;13.790;2022-12-07T05:52:59;11.75;;;5.15;;
76761;SDS011;65705;51.032;13.790;2022-12-07T05:55:25;10.88;;;5.35;;
76761;SDS011;65705;51.032;13.790;2022-12-07T05:57:51;11.90;;;5.85;;
76761;SDS011;65705;51.032;13.790;2022-12-07T06:00:35;11.13;;;5.90;;
76761;SDS011;65705;51.032;13.790;2022-12-07T06:03:00;10.18;;;5.05;;
76761;SDS011;65705;51.032;13.790;2022-12-07T06:05:26;12.85;;;5.53;;
76761;SDS011;65705;51.032;13.790;2022-12-07T06:07:52;9.95;;;5.00;;
76761;SDS011;65705;51.032;13.790;2022-12-07T06:10:17;10.43;;;5.07;;
76761;SDS011;65705;51.032;13.790;2022-12-07T06:12:43;12.02;;;6.22;;
76761;SDS011;65705;51.032;13.790;2022-12-07T06:15:12;11.20;;;5.25;;
76761;SDS011;65705;51.032;13.790;2022-12-07T06:17:38;11.35;;;5.40;;
76761;SDS011;65705;51.032;13.790;2022-12-07T06:20:05;10.82;;;4.95;;
76761;SDS011;65705;51.032;13.790;2022-12-07T06:22:32;9.35;;;4.72;;
76761;SDS011;65705;51.032;13.790;2022-12-07T06:24:58;9.73;;;3.78;;
76761;SDS011;65705;51.032;13.790;2022-12-07T06:27:24;6.32;;;3.70;;
76761;SDS011;65705;51.032;13.790;2022-12-07T06:29:49;8.80;;;4.05;;
76761;SDS011;65705;51.032;13.790;2022-12-07T06:32:15;8.55;;;3.83;;
76761;SDS011;65705;51.032;13.790;2022-12-07T06:34:41;8.95;;;4.25;;
76761;SDS011;65705;51.032;13.790;2022-12-07T06:37:07;7.18;;;2.85;;
76761;SDS011;65705;51.032;13.790;2022-12-07T06:39:33;7.30;;;3.83;;
76761;SDS011;65705;51.032;13.790;2022-12-07T06:41:58;11.48;;;4.18;;
76761;SDS011;65705;51.032;13.790;2022-12-07T06:44:24;7.97;;;3.97;;
76761;SDS011;65705;51.032;13.790;2022-12-07T06:46:50;7.80;;;3.72;;
76761;SDS011;65705;51.032;13.790;2022-12-07T06:49:16;8.00;;;3.63;;
76761;SDS011;65705;51.032;13.790;2022-12-07T06:51:42;10.55;;;5.05;;
76761;SDS011;65705;51.032;13.790;2022-12-07T06:54:09;7.60;;;3.35;;
76761;SDS011;65705;51.032;13.790;2022-12-07T06:56:35;9.43;;;3.78;;
76761;SDS011;65705;51.032;13.790;2022-12-07T06:59:02;7.20;;;3.20;;
76761;SDS011;65705;51.032;13.790;2022-12-07T07:01:28;8.52;;;3.40;;
76761;SDS011;65705;51.032;13.790;2022-12-07T07:03:54;6.85;;;3.33;;
76761;SDS011;65705;51.032;13.790;2022-12-07T07:06:20;5.18;;;2.85;;
76761;SDS011;65705;51.032;13.790;2022-12-07T07:08:45;5.53;;;2.88;;
76761;SDS011;65705;51.032;13.790;2022-12-07T07:11:11;7.07;;;3.22;;
76761;SDS011;65705;51.032;13.790;2022-12-07T07:13:37;8.20;;;4.03;;
76761;SDS011;65705;51.032;13.790;2022-12-07T07:16:04;10.07;;;4.50;;
76761;SDS011;65705;51.032;13.790;2022-12-07T07:18:30;6.60;;;3.50;;
76761;SDS011;65705;51.032;13.790;2022-12-07T07:20:56;6.85;;;3.83;;
76761;SDS011;65705;51.032;13.790;2022-12-07T07:23:22;7.18;;;3.75;;
76761;SDS011;65705;51.032;13.790;2022-12-07T07:25:48;6.65;;;3.53;;
76761;SDS011;65705;51.032;13.790;2022-12-07T07:28:14;5.78;;;3.30;;
76761;SDS011;65705;51.032;13.790;2022-12-07T07:30:40;9.43;;;3.38;;
76761;SDS011;65705;51.032;13.790;2022-12-07T07:33:06;6.03;;;3.30;;
76761;SDS011;65705;51.032;13.790;2022-12-07T07:35:32;5.90;;;3.30;;
76761;SDS011;65705;51.032;13.790;2022-12-07T07:37:59;6.05;;;3.20;;
76761;SDS011;65705;51.032;13.790;2022-12-07T07:40:25;5.88;;;2.88;;
76761;SDS011;65705;51.032;13.790;2022-12-07T07:42:52;7.10;;;3.28;;
76761;SDS011;65705;51.032;13.790;2022-12-07T07:45:19;6.63;;;3.42;;
76761;SDS011;65705;51.032;13.790;2022-12-07T07:47:46;5.85;;;3.50;;
76761;SDS011;65705;51.032;13.790;2022-12-07T07:50:12;6.35;;;2.78;;
76761;SDS011;65705;51.032;13.790;2022-12-07T07:52:39;7.07;;;3.30;;
76761;SDS011;65705;51.032;13.790;2022-12-07T07:55:05;7.10;;;3.70;;
76761;SDS011;65705;51.032;13.790;2022-12-07T07:57:32;7.05;;;3.70;;
76761;SDS011;65705;51.032;13.790;2022-12-07T07:59:58;6.90;;;3.38;;
76761;SDS011;65705;51.032;13.790;2022-12-07T08:02:24;6.00;;;3.30;;
76761;SDS011;65705;51.032;13.790;2022-12-07T08:04:49;6.72;;;3.92;;
76761;SDS011;65705;51.032;13.790;2022-12-07T08:07:15;6.15;;;3.60;;
76761;SDS011;65705;51.032;13.790;2022-12-07T08:09:41;7.38;;;3.97;;
76761;SDS011;65705;51.032;13.790;2022-12-07T08:12:07;8.63;;;4.43;;
76761;SDS011;65705;51.032;13.790;2022-12-07T08:14:33;8.40;;;4.03;;
76761;SDS011;65705;51.032;13.790;2022-12-07T08:16:59;7.47;;;3.97;;
76761;SDS011;65705;51.032;13.790;2022-12-07T08:19:25;8.35;;;4.43;;
76761;SDS011;65705;51.032;13.790;2022-12-07T08:21:51;9.13;;;5.10;;
76761;SDS011;65705;51.032;13.790;2022-12-07T08:24:17;10.02;;;4.97;;
76761;SDS011;65705;51.032;13.790;2022-12-07T08:26:43;9.60;;;4.72;;
76761;SDS011;65705;51.032;13.790;2022-12-07T08:29:09;8.35;;;4.53;;
76761;SDS011;65705;51.032;13.790;2022-12-07T08:31:35;10.68;;;4.57;;
76761;SDS011;65705;51.032;13.790;2022-12-07T08:34:01;7.43;;;4.55;;
76761;SDS011;65705;51.032;13.790;2022-12-07T08:36:26;10.82;;;4.80;;
76761;SDS011;65705;51.032;13.790;2022-12-07T08:38:52;9.02;;;4.70;;
76761;SDS011;65705;51.032;13.790;2022-12-07T08:41:18;11.43;;;5.30;;
76761;SDS011;65705;51.032;13.790;2022-12-07T08:43:44;8.90;;;5.43;;
76761;SDS011;65705;51.032;13.790;2022-12-07T08:48:51;8.80;;;4.75;;
76761;SDS011;65705;51.032;13.790;2022-12-07T08:51:21;11.02;;;4.65;;
76761;SDS011;65705;51.032;13.790;2022-12-07T08:53:48;11.63;;;5.22;;
76761;SDS011;65705;51.032;13.790;2022-12-07T08:56:15;8.15;;;4.72;;
76761;SDS011;65705;51.032;13.790;2022-12-07T08:58:41;10.98;;;5.40;;
76761;SDS011;65705;51.032;13.790;2022-12-07T09:01:08;9.43;;;4.55;;
76761;SDS011;65705;51.032;13.790;2022-12-07T09:03:34;10.20;;;4.68;;
76761;SDS011;65705;51.032;13.790;2022-12-07T09:05:59;14.10;;;5.90;;
76761;SDS011;65705;51.032;13.790;2022-12-07T09:08:26;7.85;;;4.18;;
76761;SDS011;65705;51.032;13.790;2022-12-07T09:10:56;8.23;;;4.15;;
76761;SDS011;65705;51.032;13.790;2022-12-07T09:13:22;11.52;;;4.80;;
76761;SDS011;65705;51.032;13.790;2022-12-07T09:15:47;8.93;;;4.47;;
76761;SDS011;65705;51.032;13.790;2022-12-07T09:18:13;10.45;;;5.03;;
76761;SDS011;65705;51.032;13.790;2022-12-07T09:20:39;8.15;;;4.40;;
76761;SDS011;65705;51.032;13.790;2022-12-07T09:23:05;9.07;;;4.15;;
76761;SDS011;65705;51.032;13.790;2022-12-07T09:25:32;10.52;;;3.92;;
76761;SDS011;65705;51.032;13.790;2022-12-07T09:27:58;8.43;;;4.20;;
76761;SDS011;65705;51.032;13.790;2022-12-07T09:30:25;10.55;;;4.18;;
76761;SDS011;65705;51.032;13.790;2022-12-07T09:32:55;10.32;;;5.18;;
76761;SDS011;65705;51.032;13.790;2022-12-07T09:35:22;8.93;;;4.50;;
76761;SDS011;65705;51.032;13.790;2022-12-07T09:37:49;9.40;;;4.07;;
76761;SDS011;65705;51.032;13.790;2022-12-07T09:40:15;12.18;;;3.63;;
76761;SDS011;65705;51.032;13.790;2022-12-07T09:42:44;6.90;;;3.45;;
76761;SDS011;65705;51.032;13.790;2022-12-07T09:45:22;9.48;;;4.07;;
76761;SDS011;65705;51.032;13.790;2022-12-07T09:47:50;10.35;;;4.15;;
76761;SDS011;65705;51.032;13.790;2022-12-07T09:50:19;8.50;;;3.97;;
76761;SDS011;65705;51.032;13.790;2022-12-07T09:52:47;8.65;;;3.90;;
76761;SDS011;65705;51.032;13.790;2022-12-07T09:55:15;6.90;;;3.78;;
76761;SDS011;65705;51.032;13.790;2022-12-07T09:57:45;7.63;;;4.32;;
76761;SDS011;65705;51.032;13.790;2022-12-07T10:00:18;7.25;;;3.47;;
76761;SDS011;65705;51.032;13.790;2022-12-07T10:02:49;8.20;;;3.30;;
76761;SDS011;65705;51.032;13.790;2022-12-07T10:05:23;11.05;;;3.70;;
76761;SDS011;65705;51.032;13.790;2022-12-07T10:07:53;7.93;;;3.40;;
76761;SDS011;65705;51.032;13.790;2022-12-07T10:10:21;7.82;;;3.30;;
76761;SDS011;65705;51.032;13.790;2022-12-07T10:13:00;7.25;;;3.42;;
76761;SDS011;65705;51.032;13.790;2022-12-07T10:15:48;7.25;;;3.42;;
76761;SDS011;65705;51.032;13.790;2022-12-07T10:21:30;9.98;;;3.95;;
76761;SDS011;65705;51.032;13.790;2022-12-07T10:24:03;8.27;;;3.80;;
76761;SDS011;65705;51.032;13.790;2022-12-07T10:26:52;8.65;;;2.72;;
76761;SDS011;65705;51.032;13.790;2022-12-07T10:31:46;8.48;;;3.03;;
76761;SDS011;65705;51.032;13.790;2022-12-07T10:34:22;9.43;;;3.10;;
76761;SDS011;65705;51.032;13.790;2022-12-07T10:36:50;8.98;;;3.17;;
76761;SDS011;65705;51.032;13.790;2022-12-07T10:39:18;8.32;;;3.10;;
76761;SDS011;65705;51.032;13.790;2022-12-07T10:41:58;5.93;;;2.65;;
76761;SDS011;65705;51.032;13.790;2022-12-07T10:44:26;8.15;;;2.55;;
76761;SDS011;65705;51.032;13.790;2022-12-07T10:47:06;7.63;;;3.45;;
76761;SDS011;65705;51.032;13.790;2022-12-07T10:49:53;9.35;;;4.20;;
76761;SDS011;65705;51.032;13.790;2022-12-07T11:00:15;7.18;;;3.30;;
76761;SDS011;65705;51.032;13.790;2022-12-07T11:05:45;8.30;;;3.85;;
76761;SDS011;65705;51.032;13.790;2022-12-07T11:11:14;8.63;;;3.22;;
76761;SDS011;65705;51.032;13.790;2022-12-07T11:32:44;6.82;;;2.75;;
76761;SDS011;65705;51.032;13.790;2022-12-07T11:37:56;5.25;;;3.13;;
76761;SDS011;65705;51.032;13.790;2022-12-07T11:40:28;11.85;;;4.85;;
76761;SDS011;65705;51.032;13.790;2022-12-07T11:45:44;9.30;;;4.72;;
76761;SDS011;65705;51.032;13.790;2022-12-07T11:48:50;8.98;;;3.35;;
76761;SDS011;65705;51.032;13.790;2022-12-07T11:51:12;9.90;;;5.05;;
76761;SDS011;65705;51.032;13.790;2022-12-07T11:53:39;7.65;;;3.50;;
76761;SDS011;65705;51.032;13.790;2022-12-07T11:56:10;8.70;;;4.13;;
76761;SDS011;65705;51.032;13.790;2022-12-07T12:03:45;9.57;;;4.22;;
76761;SDS011;65705;51.032;13.790;2022-12-07T12:06:13;15.68;;;3.75;;
76761;SDS011;65705;51.032;13.790;2022-12-07T12:08:41;8.38;;;3.85;;
76761;SDS011;65705;51.032;13.790;2022-12-07T12:21:44;9.48;;;4.13;;
76761;SDS011;65705;51.032;13.790;2022-12-07T12:24:24;6.72;;;3.63;;
76761;SDS011;65705;51.032;13.790;2022-12-07T12:26:56;8.02;;;3.80;;
76761;SDS011;65705;51.032;13.790;2022-12-07T12:29:36;8.98;;;3.90;;
76761;SDS011;65705;51.032;13.790;2022-12-07T12:32:13;8.15;;;3.55;;
76761;SDS011;65705;51.032;13.790;2022-12-07T12:37:53;8.35;;;3.60;;
76761;SDS011;65705;51.032;13.790;2022-12-07T12:42:52;11.73;;;3.88;;
76761;SDS011;65705;51.032;13.790;2022-12-07T12:45:27;6.93;;;2.92;;
76761;SDS011;65705;51.032;13.790;2022-12-07T12:52:56;4.95;;;1.75;;
76761;SDS011;65705;51.032;13.790;2022-12-07T12:58:40;5.88;;;2.17;;
76761;SDS011;65705;51.032;13.790;2022-12-07T13:06:53;3.42;;;1.77;;
76761;SDS011;65705;51.032;13.790;2022-12-07T13:09:23;5.30;;;1.60;;
76761;SDS011;65705;51.032;13.790;2022-12-07T13:11:56;3.55;;;1.73;;
76761;SDS011;65705;51.032;13.790;2022-12-07T13:19:56;3.28;;;1.70;;
76761;SDS011;65705;51.032;13.790;2022-12-07T13:27:28;8.82;;;2.33;;
76761;SDS011;65705;51.032;13.790;2022-12-07T13:29:56;4.32;;;1.73;;
76761;SDS011;65705;51.032;13.790;2022-12-07T13:32:23;5.18;;;1.80;;
76761;SDS011;65705;51.032;13.790;2022-12-07T13:34:51;3.08;;;1.50;;
76761;SDS011;65705;51.032;13.790;2022-12-07T13:39:58;4.35;;;1.70;;
76761;SDS011;65705;51.032;13.790;2022-12-07T13:44:52;6.93;;;1.92;;
76761;SDS011;65705;51.032;13.790;2022-12-07T13:47:30;13.70;;;6.03;;
76761;SDS011;65705;51.032;13.790;2022-12-07T13:50:25;5.65;;;2.58;;
76761;SDS011;65705;51.032;13.790;2022-12-07T13:52:56;9.27;;;2.95;;
76761;SDS011;65705;51.032;13.790;2022-12-07T13:55:29;6.75;;;2.83;;
76761;SDS011;65705;51.032;13.790;2022-12-07T13:57:55;5.70;;;3.10;;
76761;SDS011;65705;51.032;13.790;2022-12-07T14:00:22;6.63;;;3.25;;
76761;SDS011;65705;51.032;13.790;2022-12-07T14:02:57;6.45;;;3.63;;
76761;SDS011;65705;51.032;13.790;2022-12-07T14:05:29;6.20;;;3.90;;
76761;SDS011;65705;51.032;13.790;2022-12-07T14:18:53;6.38;;;3.30;;
76761;SDS011;65705;51.032;13.790;2022-12-07T14:21:22;10.77;;;3.63;;
76761;SDS011;65705;51.032;13.790;2022-12-07T14:24:02;8.75;;;3.78;;
76761;SDS011;65705;51.032;13.790;2022-12-07T14:26:33;9.27;;;3.45;;
76761;SDS011;65705;51.032;13.790;2022-12-07T14:31:44;7.50;;;3.47;;
76761;SDS011;65705;51.032;13.790;2022-12-07T14:34:13;7.68;;;3.15;;
76761;SDS011;65705;51.032;13.790;2022-12-07T14:36:38;9.32;;;4.72;;
76761;SDS011;65705;51.032;13.790;2022-12-07T14:39:04;7.63;;;3.83;;
76761;SDS011;65705;51.032;13.790;2022-12-07T14:41:30;6.65;;;3.25;;
76761;SDS011;65705;51.032;13.790;2022-12-07T14:44:14;7.88;;;3.08;;
76761;SDS011;65705;51.032;13.790;2022-12-07T14:46:40;7.40;;;4.00;;
76761;SDS011;65705;51.032;13.790;2022-12-07T14:49:05;10.15;;;4.05;;
76761;SDS011;65705;51.032;13.790;2022-12-07T14:51:31;8.50;;;3.65;;
76761;SDS011;65705;51.032;13.790;2022-12-07T14:53:59;9.95;;;3.50;;
76761;SDS011;65705;51.032;13.790;2022-12-07T14:56:25;8.65;;;4.28;;
76761;SDS011;65705;51.032;13.790;2022-12-07T14:58:53;12.60;;;4.32;;
76761;SDS011;65705;51.032;13.790;2022-12-07T15:01:18;9.82;;;4.35;;
76761;SDS011;65705;51.032;13.790;2022-12-07T15:03:44;8.52;;;3.70;;
76761;SDS011;65705;51.032;13.790;2022-12-07T15:06:12;8.82;;;3.47;;
76761;SDS011;65705;51.032;13.790;2022-12-07T15:08:40;6.18;;;3.05;;
76761;SDS011;65705;51.032;13.790;2022-12-07T15:11:06;8.95;;;3.55;;
76761;SDS011;65705;51.032;13.790;2022-12-07T15:13:34;10.07;;;3.22;;
76761;SDS011;65705;51.032;13.790;2022-12-07T15:16:19;10.32;;;2.95;;
76761;SDS011;65705;51.032;13.790;2022-12-07T15:18:46;10.35;;;4.18;;
76761;SDS011;65705;51.032;13.790;2022-12-07T15:21:13;9.35;;;3.42;;
76761;SDS011;65705;51.032;13.790;2022-12-07T15:23:39;6.65;;;2.90;;
76761;SDS011;65705;51.032;13.790;2022-12-07T15:26:05;6.07;;;2.00;;
76761;SDS011;65705;51.032;13.790;2022-12-07T15:28:33;9.27;;;2.65;;
76761;SDS011;65705;51.032;13.790;2022-12-07T15:30:59;8.93;;;2.80;;
76761;SDS011;65705;51.032;13.790;2022-12-07T15:33:25;4.72;;;2.10;;
76761;SDS011;65705;51.032;13.790;2022-12-07T15:35:51;6.95;;;2.40;;
76761;SDS011;65705;51.032;13.790;2022-12-07T15:38:16;5.50;;;2.10;;
76761;SDS011;65705;51.032;13.790;2022-12-07T15:40:42;5.30;;;1.67;;
76761;SDS011;65705;51.032;13.790;2022-12-07T15:43:11;7.05;;;1.90;;
76761;SDS011;65705;51.032;13.790;2022-12-07T15:45:55;4.45;;;1.55;;
76761;SDS011;65705;51.032;13.790;2022-12-07T15:48:21;4.70;;;1.60;;
76761;SDS011;65705;51.032;13.790;2022-12-07T15:50:47;5.97;;;2.03;;
76761;SDS011;65705;51.032;13.790;2022-12-07T15:53:12;8.40;;;1.50;;
76761;SDS011;65705;51.032;13.790;2022-12-07T15:55:38;3.58;;;1.60;;
76761;SDS011;65705;51.032;13.790;2022-12-07T15:58:05;2.65;;;1.30;;
76761;SDS011;65705;51.032;13.790;2022-12-07T16:00:31;4.03;;;1.52;;
76761;SDS011;65705;51.032;13.790;2022-12-07T16:02:57;3.88;;;1.40;;
76761;SDS011;65705;51.032;13.790;2022-12-07T16:05:23;5.63;;;1.92;;
76761;SDS011;65705;51.032;13.790;2022-12-07T16:07:49;2.33;;;1.38;;
76761;SDS011;65705;51.032;13.790;2022-12-07T16:10:14;4.82;;;1.60;;
76761;SDS011;65705;51.032;13.790;2022-12-07T16:12:40;5.07;;;1.63;;
76761;SDS011;65705;51.032;13.790;2022-12-07T16:15:06;2.83;;;1.40;;
76761;SDS011;65705;51.032;13.790;2022-12-07T16:17:32;9.75;;;2.05;;
76761;SDS011;65705;51.032;13.790;2022-12-07T16:19:58;5.57;;;1.50;;
76761;SDS011;65705;51.032;13.790;2022-12-07T16:22:23;10.23;;;2.13;;
76761;SDS011;65705;51.032;13.790;2022-12-07T16:24:49;6.25;;;1.80;;
76761;SDS011;65705;51.032;13.790;2022-12-07T16:27:15;5.20;;;1.80;;
76761;SDS011;65705;51.032;13.790;2022-12-07T16:29:41;4.00;;;1.52;;
76761;SDS011;65705;51.032;13.790;2022-12-07T16:32:06;9.45;;;2.13;;
76761;SDS011;65705;51.032;13.790;2022-12-07T16:34:32;9.23;;;2.08;;
76761;SDS011;65705;51.032;13.790;2022-12-07T16:36:58;5.32;;;2.00;;
76761;SDS011;65705;51.032;13.790;2022-12-07T16:39:24;4.70;;;1.65;;
76761;SDS011;65705;51.032;13.790;2022-12-07T16:41:49;6.03;;;2.10;;
76761;SDS011;65705;51.032;13.790;2022-12-07T16:44:15;4.95;;;2.05;;
76761;SDS011;65705;51.032;13.790;2022-12-07T16:46:41;4.22;;;2.00;;
76761;SDS011;65705;51.032;13.790;2022-12-07T16:49:10;5.03;;;1.60;;
76761;SDS011;65705;51.032;13.790;2022-12-07T16:51:37;5.53;;;2.60;;
76761;SDS011;65705;51.032;13.790;2022-12-07T16:54:03;5.55;;;1.88;;
76761;SDS011;65705;51.032;13.790;2022-12-07T16:56:28;3.42;;;1.23;;
76761;SDS011;65705;51.032;13.790;2022-12-07T16:58:54;5.85;;;1.90;;
76761;SDS011;65705;51.032;13.790;2022-12-07T17:01:22;8.63;;;1.75;;
76761;SDS011;65705;51.032;13.790;2022-12-07T17:03:48;5.35;;;1.83;;
76761;SDS011;65705;51.032;13.790;2022-12-07T17:06:18;6.13;;;1.83;;